Seleccionar fecha


viernes, 12 octubre, 2018

Fecha Temperaturas Humedad relativa Presión atmosférica Precipitaciones Dirección viento Velocidad del viento Velocidad de racha Iluminancia
11:58 PM21,1 ºC76 %964 hPa0,00 l/m2 45º NE 0,0 km/h0,0 km/h2.3 Lux
11:53 PM21,0 ºC76 %964 hPa0,00 l/m2 0º N 0,0 km/h0,0 km/h2.3 Lux
11:48 PM21,0 ºC76 %964 hPa0,00 l/m2 0º N 0,0 km/h0,0 km/h2.3 Lux
11:43 PM21,1 ºC76 %964 hPa0,00 l/m2 45º NE 0,0 km/h0,6 km/h2.1 Lux
11:38 PM21,1 ºC76 %964 hPa0,00 l/m2 45º NE 0,1 km/h0,9 km/h2.4 Lux
11:33 PM21,2 ºC75 %964 hPa0,00 l/m2 0º N 0,2 km/h1,4 km/h2.2 Lux
11:28 PM21,1 ºC76 %964 hPa0,00 l/m2 45º NE 0,4 km/h3,2 km/h2.2 Lux
11:23 PM21,1 ºC76 %964 hPa0,00 l/m2 67,5º ENE 0,1 km/h1,4 km/h2.3 Lux
11:18 PM21,2 ºC76 %964 hPa0,00 l/m2 0º N 0,1 km/h1,2 km/h2.2 Lux
11:13 PM21,3 ºC75 %964 hPa0,00 l/m2 0º N 0,3 km/h2,6 km/h2.2 Lux
11:08 PM21,3 ºC75 %964 hPa0,00 l/m2 67,5º ENE 0,2 km/h1,2 km/h2.3 Lux
11:03 PM21,3 ºC75 %964 hPa0,00 l/m2 337,5º NNO 0,0 km/h0,3 km/h2.2 Lux
10:58 PM21,4 ºC75 %964 hPa0,00 l/m2 0º N 0,0 km/h0,6 km/h2.3 Lux
10:53 PM21,4 ºC76 %964 hPa0,00 l/m2 0º N 0,1 km/h1,2 km/h2.3 Lux
10:48 PM21,5 ºC75 %964 hPa0,00 l/m2 0º N 0,2 km/h1,7 km/h2.3 Lux
10:43 PM21,6 ºC75 %964 hPa0,00 l/m2 45º NE 0,0 km/h0,3 km/h2.3 Lux
10:38 PM21,7 ºC76 %964 hPa0,00 l/m2 67,5º ENE 0,0 km/h0,0 km/h2.3 Lux
10:33 PM21,7 ºC75 %964 hPa0,00 l/m2 67,5º ENE 0,1 km/h1,2 km/h2.3 Lux
10:28 PM21,7 ºC76 %964 hPa0,00 l/m2 0º N 0,0 km/h0,3 km/h2.2 Lux
10:23 PM21,7 ºC76 %964 hPa0,00 l/m2 337,5º NNO 0,1 km/h0,6 km/h2.3 Lux
10:18 PM21,7 ºC76 %964 hPa0,00 l/m2 247,5º OSO 0,0 km/h0,0 km/h2.1 Lux
10:13 PM21,6 ºC77 %964 hPa0,00 l/m2 45º NE 0,0 km/h0,0 km/h2.3 Lux
10:08 PM21,5 ºC77 %964 hPa0,00 l/m2 67,5º ENE 0,0 km/h0,0 km/h2.4 Lux
10:03 PM21,6 ºC77 %964 hPa0,00 l/m2 225º SO 0,0 km/h0,0 km/h2.3 Lux
09:58 PM21,7 ºC75 %964 hPa0,00 l/m2 67,5º ENE 0,0 km/h0,0 km/h2.3 Lux
09:53 PM21,5 ºC76 %964 hPa0,00 l/m2 45º NE 0,0 km/h0,0 km/h2.2 Lux
09:48 PM21,4 ºC75 %964 hPa0,00 l/m2 67,5º ENE 0,0 km/h0,0 km/h2.2 Lux
09:43 PM21,7 ºC75 %964 hPa0,00 l/m2 67,5º ENE 0,0 km/h0,0 km/h2.3 Lux
09:38 PM21,4 ºC78 %964 hPa0,00 l/m2 67,5º ENE 0,0 km/h0,0 km/h2.3 Lux
09:33 PM21,7 ºC75 %964 hPa0,00 l/m2 157,5º SSE 0,0 km/h0,0 km/h2.3 Lux
09:28 PM21,9 ºC74 %964 hPa0,00 l/m2 157,5º SSE 0,0 km/h0,0 km/h2.1 Lux
09:23 PM22,1 ºC72 %964 hPa0,00 l/m2 67,5º ENE 0,0 km/h0,0 km/h2.3 Lux
09:18 PM22,3 ºC72 %964 hPa0,00 l/m2 45º NE 0,0 km/h0,0 km/h2.3 Lux
09:13 PM22,7 ºC68 %964 hPa0,00 l/m2 67,5º ENE 0,0 km/h0,0 km/h2.2 Lux
09:08 PM22,5 ºC70 %964 hPa0,00 l/m2 337,5º NNO 0,0 km/h0,0 km/h2.1 Lux
09:03 PM23,0 ºC65 %964 hPa0,00 l/m2 67,5º ENE 0,0 km/h0,0 km/h2.3 Lux
08:58 PM22,7 ºC66 %964 hPa0,00 l/m2 45º NE 0,0 km/h0,0 km/h2.1 Lux
08:53 PM23,0 ºC65 %964 hPa0,00 l/m2 67,5º ENE 0,0 km/h0,0 km/h2.2 Lux
08:48 PM23,1 ºC64 %964 hPa0,00 l/m2 45º NE 0,0 km/h0,0 km/h2.2 Lux
08:43 PM23,1 ºC64 %964 hPa0,00 l/m2 45º NE 0,0 km/h0,0 km/h2.3 Lux
08:38 PM23,1 ºC65 %964 hPa0,00 l/m2 67,5º ENE 0,0 km/h0,0 km/h2.3 Lux
08:33 PM23,2 ºC65 %964 hPa0,00 l/m2 67,5º ENE 0,0 km/h0,0 km/h2.3 Lux
08:28 PM23,5 ºC63 %964 hPa0,00 l/m2 67,5º ENE 0,0 km/h0,0 km/h2.2 Lux
08:23 PM23,6 ºC62 %964 hPa0,00 l/m2 157,5º SSE 0,3 km/h2,6 km/h2.3 Lux
08:18 PM23,6 ºC62 %964 hPa0,00 l/m2 247,5º OSO 0,8 km/h4,6 km/h2.3 Lux
08:13 PM23,6 ºC63 %964 hPa0,00 l/m2 202,5º SSO 0,8 km/h7,8 km/h2.3 Lux
08:08 PM23,8 ºC63 %964 hPa0,00 l/m2 315º NO 0,0 km/h0,3 km/h2.3 Lux
08:03 PM23,8 ºC63 %964 hPa0,00 l/m2 337,5º NNO 0,2 km/h1,4 km/h2.6 Lux
07:58 PM23,9 ºC65 %964 hPa0,00 l/m2 247,5º OSO 0,1 km/h1,4 km/h3.1 Lux
07:53 PM24,0 ºC64 %964 hPa0,00 l/m2 67,5º ENE 0,0 km/h0,0 km/h3.6 Lux
07:48 PM24,1 ºC64 %964 hPa0,00 l/m2 67,5º ENE 0,0 km/h0,0 km/h4.6 Lux
07:43 PM24,2 ºC64 %964 hPa0,00 l/m2 0º N 0,0 km/h0,0 km/h6.7 Lux
07:38 PM24,4 ºC62 %964 hPa0,00 l/m2 337,5º NNO 0,1 km/h0,9 km/h12.4 Lux
07:33 PM24,6 ºC62 %964 hPa0,00 l/m2 225º SO 1,2 km/h6,4 km/h22 Lux
07:28 PM24,9 ºC60 %964 hPa0,00 l/m2 337,5º NNO 2,3 km/h8,7 km/h34.8 Lux
07:23 PM25,1 ºC59 %964 hPa0,00 l/m2 225º SO 4,2 km/h7,8 km/h47.4 Lux
07:18 PM25,4 ºC59 %964 hPa0,00 l/m2 157,5º SSE 1,9 km/h8,1 km/h67.8 Lux
07:13 PM25,4 ºC59 %963 hPa0,00 l/m2 0º N 0,5 km/h3,2 km/h99.1 Lux
07:08 PM25,6 ºC59 %963 hPa0,00 l/m2 315º NO 2,3 km/h7,2 km/h115.2 Lux
07:03 PM25,7 ºC58 %963 hPa0,00 l/m2 337,5º NNO 1,4 km/h6,1 km/h198 Lux
06:58 PM26,0 ºC57 %963 hPa0,00 l/m2 225º SO 3,5 km/h8,1 km/h191.6 Lux
06:53 PM26,2 ºC55 %963 hPa0,00 l/m2 225º SO 2,1 km/h8,7 km/h188.5 Lux
06:48 PM26,3 ºC55 %963 hPa0,00 l/m2 225º SO 1,1 km/h5,8 km/h239.4 Lux
06:43 PM26,3 ºC55 %963 hPa0,00 l/m2 0º N 1,0 km/h3,7 km/h300.6 Lux
06:38 PM26,3 ºC54 %963 hPa0,00 l/m2 225º SO 5,4 km/h13,3 km/h313 Lux
06:33 PM26,9 ºC50 %963 hPa0,00 l/m2 247,5º OSO 6,6 km/h12,1 km/h347.3 Lux
06:18 PM27,8 ºC45 %963 hPa0,00 l/m2 225º SO 7,0 km/h13,6 km/h603.5 Lux
06:13 PM27,7 ºC45 %963 hPa0,00 l/m2 225º SO 4,4 km/h11,8 km/h715.3 Lux
06:08 PM27,5 ºC44 %963 hPa0,00 l/m2 315º NO 6,1 km/h10,7 km/h887.7 Lux
06:03 PM27,2 ºC46 %963 hPa0,00 l/m2 315º NO 3,7 km/h8,1 km/h694.7 Lux
05:58 PM27,1 ºC46 %963 hPa0,00 l/m2 247,5º OSO 6,8 km/h12,1 km/h715.3 Lux
05:53 PM27,4 ºC46 %963 hPa0,00 l/m2 225º SO 3,9 km/h11,0 km/h656 Lux
05:48 PM27,5 ºC46 %963 hPa0,00 l/m2 225º SO 2,8 km/h9,0 km/h656 Lux
05:43 PM27,2 ºC47 %963 hPa0,00 l/m2 315º NO 2,2 km/h7,8 km/h603.5 Lux
05:38 PM27,7 ºC46 %963 hPa0,00 l/m2 135º SE 4,7 km/h11,0 km/h674.9 Lux
05:33 PM28,2 ºC44 %963 hPa0,00 l/m2 202,5º SSO 1,5 km/h9,3 km/h674.9 Lux
05:28 PM28,5 ºC43 %963 hPa0,00 l/m2 337,5º NNO 0,8 km/h3,5 km/h807.1 Lux
05:23 PM28,3 ºC44 %963 hPa0,00 l/m2 315º NO 1,9 km/h9,5 km/h887.7 Lux
05:18 PM29,0 ºC42 %963 hPa0,00 l/m2 315º NO 2,9 km/h6,7 km/h1127.5 Lux
05:13 PM28,2 ºC45 %963 hPa0,00 l/m2 45º NE 1,3 km/h4,6 km/h980.4 Lux
05:08 PM29,0 ºC43 %963 hPa0,00 l/m2 157,5º SSE 5,4 km/h9,5 km/h1169.2 Lux
05:03 PM28,1 ºC45 %963 hPa0,00 l/m2 225º SO 3,6 km/h9,0 km/h1087.9 Lux
04:58 PM28,6 ºC44 %963 hPa0,00 l/m2 225º SO 5,5 km/h13,3 km/h1259.7 Lux
04:53 PM28,1 ºC45 %964 hPa0,00 l/m2 225º SO 4,0 km/h8,7 km/h1169.2 Lux
04:48 PM28,6 ºC45 %964 hPa0,00 l/m2 337,5º NNO 7,1 km/h15,6 km/h1213.3 Lux
04:43 PM28,5 ºC45 %964 hPa0,00 l/m2 337,5º NNO 4,1 km/h8,1 km/h1415.6 Lux
04:38 PM28,2 ºC46 %964 hPa0,00 l/m2 337,5º NNO 5,6 km/h11,6 km/h1415.6 Lux
04:33 PM28,5 ºC45 %964 hPa0,00 l/m2 225º SO 5,4 km/h11,0 km/h1473.8 Lux
04:28 PM28,7 ºC43 %964 hPa0,00 l/m2 157,5º SSE 4,4 km/h12,7 km/h1360.7 Lux
04:23 PM28,0 ºC45 %964 hPa0,00 l/m2 337,5º NNO 2,3 km/h13,6 km/h1473.8 Lux
04:18 PM29,0 ºC43 %964 hPa0,00 l/m2 337,5º NNO 4,1 km/h12,4 km/h1473.8 Lux
04:13 PM28,4 ºC44 %964 hPa0,00 l/m2 315º NO 3,2 km/h11,6 km/h1823.7 Lux
04:08 PM28,5 ºC43 %964 hPa0,00 l/m2 337,5º NNO 5,6 km/h12,7 km/h1744.7 Lux
04:03 PM28,9 ºC43 %964 hPa0,00 l/m2 0º N 2,7 km/h11,0 km/h1601 Lux
03:58 PM28,8 ºC44 %964 hPa0,00 l/m2 135º SE 2,4 km/h11,6 km/h1823.7 Lux
03:53 PM28,0 ºC45 %964 hPa0,00 l/m2 67,5º ENE 0,8 km/h6,7 km/h1823.7 Lux
03:48 PM28,5 ºC44 %964 hPa0,00 l/m2 0º N 4,0 km/h11,6 km/h1998 Lux
03:43 PM28,8 ºC43 %964 hPa0,00 l/m2 0º N 5,1 km/h16,8 km/h1908 Lux
03:38 PM28,3 ºC45 %964 hPa0,00 l/m2 337,5º NNO 2,2 km/h13,0 km/h2197.4 Lux
03:33 PM28,7 ºC43 %964 hPa0,00 l/m2 0º N 5,5 km/h16,2 km/h2197.4 Lux
03:28 PM28,2 ºC45 %964 hPa0,00 l/m2 45º NE 3,8 km/h10,4 km/h2197.4 Lux
03:23 PM28,5 ºC46 %964 hPa0,00 l/m2 0º N 4,0 km/h15,6 km/h2554.9 Lux
03:18 PM28,1 ºC44 %964 hPa0,00 l/m2 135º SE 2,7 km/h6,9 km/h2554.9 Lux
03:13 PM27,8 ºC47 %964 hPa0,00 l/m2 157,5º SSE 6,7 km/h17,4 km/h2692.9 Lux
03:08 PM27,2 ºC48 %964 hPa0,00 l/m2 0º N 7,6 km/h17,9 km/h2692.9 Lux
03:03 PM28,4 ºC46 %964 hPa0,00 l/m2 337,5º NNO 8,7 km/h18,5 km/h2692.9 Lux
02:58 PM28,7 ºC45 %964 hPa0,00 l/m2 337,5º NNO 1,2 km/h5,5 km/h2554.9 Lux
02:53 PM27,2 ºC49 %964 hPa0,00 l/m2 67,5º ENE 2,1 km/h9,3 km/h2554.9 Lux
02:48 PM27,7 ºC47 %964 hPa0,00 l/m2 337,5º NNO 7,7 km/h15,3 km/h3003.2 Lux
02:43 PM27,6 ºC48 %964 hPa0,00 l/m2 337,5º NNO 7,8 km/h36,1 km/h2841.9 Lux
02:38 PM27,5 ºC48 %964 hPa0,00 l/m2 337,5º NNO 9,7 km/h20,8 km/h3178.1 Lux
02:33 PM27,1 ºC49 %965 hPa0,00 l/m2 315º NO 2,5 km/h6,9 km/h3003.2 Lux
02:28 PM27,7 ºC47 %965 hPa0,00 l/m2 0º N 8,5 km/h13,9 km/h2841.9 Lux
02:23 PM27,6 ºC49 %965 hPa0,00 l/m2 337,5º NNO 3,4 km/h14,4 km/h2841.9 Lux
02:18 PM26,8 ºC51 %965 hPa0,00 l/m2 45º NE 3,5 km/h9,3 km/h3003.2 Lux
02:13 PM27,3 ºC49 %965 hPa0,00 l/m2 337,5º NNO 7,4 km/h13,9 km/h3003.2 Lux
02:08 PM26,4 ºC51 %965 hPa0,00 l/m2 337,5º NNO 2,5 km/h9,3 km/h2841.9 Lux
02:03 PM26,3 ºC53 %965 hPa0,00 l/m2 337,5º NNO 4,1 km/h12,4 km/h3003.2 Lux
01:58 PM26,9 ºC50 %965 hPa0,00 l/m2 247,5º OSO 8,1 km/h16,5 km/h2554.9 Lux
01:53 PM26,3 ºC53 %965 hPa0,00 l/m2 0º N 1,7 km/h11,0 km/h2692.9 Lux
01:48 PM26,3 ºC53 %965 hPa0,00 l/m2 315º NO 4,9 km/h15,6 km/h2426.9 Lux
01:43 PM27,5 ºC49 %965 hPa0,00 l/m2 337,5º NNO 4,2 km/h10,4 km/h2692.9 Lux
01:38 PM27,0 ºC51 %965 hPa0,00 l/m2 337,5º NNO 0,0 km/h0,3 km/h2554.9 Lux
01:33 PM26,8 ºC54 %965 hPa0,00 l/m2 247,5º OSO 0,3 km/h1,4 km/h2841.9 Lux
01:28 PM25,6 ºC56 %965 hPa0,00 l/m2 337,5º NNO 3,0 km/h12,1 km/h2554.9 Lux
01:23 PM27,3 ºC50 %965 hPa0,00 l/m2 337,5º NNO 6,1 km/h12,7 km/h2841.9 Lux
01:18 PM25,3 ºC57 %965 hPa0,00 l/m2 337,5º NNO 0,8 km/h7,5 km/h3178.1 Lux
01:13 PM26,2 ºC55 %965 hPa0,00 l/m2 337,5º NNO 5,7 km/h11,3 km/h3368.1 Lux
01:08 PM25,7 ºC57 %965 hPa0,00 l/m2 337,5º NNO 0,8 km/h6,4 km/h3003.2 Lux
01:03 PM25,6 ºC56 %965 hPa0,00 l/m2 337,5º NNO 2,2 km/h9,8 km/h3003.2 Lux
12:58 PM25,2 ºC58 %966 hPa0,00 l/m2 67,5º ENE 1,9 km/h12,1 km/h3003.2 Lux
12:53 PM25,4 ºC56 %966 hPa0,00 l/m2 67,5º ENE 5,8 km/h10,7 km/h2841.9 Lux
12:48 PM25,3 ºC56 %966 hPa0,00 l/m2 315º NO 2,9 km/h11,6 km/h3003.2 Lux
12:43 PM24,7 ºC58 %966 hPa0,00 l/m2 45º NE 4,6 km/h14,4 km/h2692.9 Lux
12:38 PM23,7 ºC62 %966 hPa0,00 l/m2 337,5º NNO 2,3 km/h12,4 km/h2692.9 Lux
12:33 PM24,2 ºC62 %966 hPa0,00 l/m2 337,5º NNO 4,2 km/h10,4 km/h2841.9 Lux
12:28 PM23,5 ºC66 %966 hPa0,00 l/m2 0º N 2,0 km/h11,6 km/h2692.9 Lux
12:23 PM23,2 ºC66 %966 hPa0,00 l/m2 0º N 3,4 km/h9,8 km/h2554.9 Lux
12:18 PM26,1 ºC53 %966 hPa0,00 l/m2 337,5º NNO 4,7 km/h10,1 km/h2554.9 Lux
12:13 PM25,0 ºC59 %966 hPa0,00 l/m2 337,5º NNO 0,4 km/h8,1 km/h2554.9 Lux
12:08 PM25,1 ºC58 %966 hPa0,00 l/m2 135º SE 0,0 km/h0,3 km/h2426.9 Lux
12:03 PM24,6 ºC62 %966 hPa0,00 l/m2 0º N 0,0 km/h0,0 km/h2554.9 Lux
11:58 AM24,6 ºC61 %966 hPa0,00 l/m2 45º NE 0,0 km/h0,0 km/h2308 Lux
11:53 AM24,7 ºC61 %966 hPa0,00 l/m2 67,5º ENE 0,0 km/h0,3 km/h2426.9 Lux
11:48 AM23,5 ºC68 %966 hPa0,00 l/m2 67,5º ENE 0,0 km/h0,0 km/h2426.9 Lux
11:43 AM23,6 ºC64 %966 hPa0,00 l/m2 45º NE 0,0 km/h0,0 km/h2197.4 Lux
11:38 AM23,4 ºC66 %966 hPa0,00 l/m2 337,5º NNO 0,0 km/h0,0 km/h2554.9 Lux
11:33 AM22,2 ºC71 %966 hPa0,00 l/m2 67,5º ENE 0,0 km/h0,0 km/h2197.4 Lux
11:28 AM22,2 ºC73 %966 hPa0,00 l/m2 0º N 0,0 km/h0,0 km/h2094.2 Lux
11:23 AM21,6 ºC76 %966 hPa0,00 l/m2 45º NE 0,0 km/h0,3 km/h1823.7 Lux
11:18 AM21,0 ºC77 %966 hPa0,00 l/m2 45º NE 0,2 km/h2,3 km/h1823.7 Lux
11:13 AM21,1 ºC78 %966 hPa0,00 l/m2 337,5º NNO 0,0 km/h0,0 km/h1998 Lux
11:08 AM21,0 ºC79 %966 hPa0,00 l/m2 0º N 0,0 km/h0,0 km/h1908 Lux
11:03 AM20,7 ºC80 %966 hPa0,00 l/m2 67,5º ENE 0,0 km/h0,0 km/h1908 Lux
10:58 AM21,3 ºC76 %965 hPa0,00 l/m2 0º N 0,8 km/h5,5 km/h1670.6 Lux
10:53 AM20,1 ºC84 %965 hPa0,00 l/m2 0º N 0,0 km/h0,6 km/h1823.7 Lux
10:48 AM20,3 ºC82 %965 hPa0,00 l/m2 45º NE 1,0 km/h7,2 km/h1744.7 Lux
10:43 AM21,2 ºC76 %965 hPa0,00 l/m2 0º N 0,1 km/h0,9 km/h1601 Lux
10:38 AM22,5 ºC72 %965 hPa0,00 l/m2 0º N 0,1 km/h0,6 km/h1473.8 Lux
10:33 AM21,0 ºC80 %965 hPa0,00 l/m2 0º N 0,0 km/h0,0 km/h1169.2 Lux
10:28 AM19,8 ºC87 %965 hPa0,00 l/m2 67,5º ENE 0,0 km/h0,3 km/h980.4 Lux
10:23 AM18,4 ºC94 %965 hPa0,00 l/m2 45º NE 0,0 km/h0,0 km/h603.5 Lux
10:18 AM18,1 ºC95 %965 hPa0,00 l/m2 0º N 0,2 km/h2,0 km/h347.3 Lux
10:13 AM17,6 ºC98 %965 hPa0,00 l/m2 45º NE 0,4 km/h5,5 km/h306.7 Lux
10:08 AM17,3 ºC100 %965 hPa0,00 l/m2 337,5º NNO 0,1 km/h0,9 km/h252.9 Lux
10:03 AM16,7 ºC100 %965 hPa0,00 l/m2 0º N 0,0 km/h0,3 km/h223 Lux
09:58 AM15,8 ºC100 %965 hPa0,00 l/m2 0º N 0,0 km/h0,3 km/h201.3 Lux
09:53 AM15,6 ºC100 %965 hPa0,00 l/m2 0º N 0,0 km/h0,0 km/h163.7 Lux
09:48 AM16,0 ºC100 %965 hPa0,00 l/m2 45º NE 0,0 km/h0,0 km/h168.8 Lux
09:43 AM15,7 ºC100 %965 hPa0,00 l/m2 0º N 0,1 km/h0,6 km/h171.4 Lux
09:38 AM15,8 ºC100 %965 hPa0,00 l/m2 0º N 0,0 km/h0,0 km/h163.7 Lux
09:33 AM15,8 ºC100 %965 hPa0,00 l/m2 0º N 0,0 km/h0,0 km/h145.4 Lux
09:28 AM15,7 ºC100 %965 hPa0,00 l/m2 0º N 0,0 km/h0,0 km/h124.7 Lux
09:23 AM15,8 ºC100 %965 hPa0,00 l/m2 0º N 0,0 km/h0,0 km/h116.7 Lux
09:18 AM15,7 ºC100 %965 hPa0,00 l/m2 0º N 0,0 km/h0,0 km/h116.7 Lux
09:13 AM15,5 ºC100 %965 hPa0,00 l/m2 157,5º SSE 0,0 km/h0,0 km/h105.4 Lux
09:08 AM15,1 ºC100 %964 hPa0,00 l/m2 0º N 0,0 km/h0,0 km/h92.2 Lux
09:03 AM14,9 ºC100 %964 hPa0,00 l/m2 0º N 0,0 km/h0,0 km/h79.6 Lux
08:58 AM16,0 ºC100 %964 hPa0,00 l/m2 0º N 0,0 km/h0,0 km/h67.1 Lux
08:53 AM15,9 ºC100 %964 hPa0,00 l/m2 0º N 0,0 km/h0,0 km/h56.3 Lux
08:48 AM15,6 ºC100 %964 hPa0,00 l/m2 45º NE 0,0 km/h0,3 km/h52.7 Lux
08:43 AM15,3 ºC100 %964 hPa0,00 l/m2 45º NE 0,0 km/h0,0 km/h45.8 Lux
08:38 AM15,5 ºC100 %964 hPa0,00 l/m2 0º N 0,0 km/h0,0 km/h33.2 Lux
08:33 AM15,4 ºC100 %964 hPa0,00 l/m2 0º N 0,0 km/h0,0 km/h24 Lux
08:28 AM14,9 ºC100 %964 hPa0,00 l/m2 0º N 0,0 km/h0,0 km/h17.5 Lux
08:23 AM14,7 ºC100 %964 hPa0,00 l/m2 0º N 0,0 km/h0,0 km/h11.6 Lux
08:18 AM14,7 ºC100 %964 hPa0,00 l/m2 135º SE 0,0 km/h0,0 km/h6.5 Lux
08:13 AM14,8 ºC100 %964 hPa0,00 l/m2 0º N 0,0 km/h0,0 km/h5 Lux
08:08 AM15,1 ºC100 %964 hPa0,00 l/m2 0º N 0,0 km/h0,0 km/h3 Lux
08:03 AM15,3 ºC100 %964 hPa0,00 l/m2 157,5º SSE 0,0 km/h0,0 km/h2.5 Lux
07:58 AM15,5 ºC100 %964 hPa0,00 l/m2 337,5º NNO 0,0 km/h0,0 km/h2.4 Lux
07:53 AM16,1 ºC100 %964 hPa0,00 l/m2 45º NE 0,0 km/h0,3 km/h2.3 Lux
07:48 AM16,0 ºC100 %964 hPa0,00 l/m2 0º N 0,0 km/h0,6 km/h2.2 Lux
07:43 AM16,1 ºC100 %963 hPa0,00 l/m2 337,5º NNO 0,1 km/h0,6 km/h2.3 Lux
07:38 AM16,0 ºC100 %963 hPa0,00 l/m2 337,5º NNO 0,1 km/h0,3 km/h2.2 Lux
07:33 AM16,0 ºC100 %963 hPa0,00 l/m2 0º N 0,0 km/h0,0 km/h2.3 Lux
07:28 AM15,9 ºC100 %963 hPa0,00 l/m2 0º N 0,0 km/h0,0 km/h2.2 Lux
07:23 AM15,7 ºC100 %963 hPa0,00 l/m2 45º NE 0,0 km/h0,0 km/h2.3 Lux
07:18 AM15,7 ºC100 %963 hPa0,00 l/m2 0º N 0,0 km/h0,0 km/h2.1 Lux
07:13 AM15,5 ºC100 %963 hPa0,00 l/m2 0º N 0,0 km/h0,0 km/h2.3 Lux
07:08 AM15,3 ºC100 %963 hPa0,00 l/m2 0º N 0,0 km/h0,0 km/h2.2 Lux
07:03 AM14,3 ºC100 %963 hPa0,00 l/m2 0º N 0,0 km/h0,0 km/h2.3 Lux
06:58 AM14,8 ºC100 %963 hPa0,00 l/m2 45º NE 0,0 km/h0,0 km/h2.1 Lux
06:53 AM16,2 ºC100 %963 hPa0,00 l/m2 0º N 0,0 km/h0,0 km/h2.4 Lux
06:48 AM16,3 ºC100 %963 hPa0,00 l/m2 337,5º NNO 0,1 km/h0,9 km/h2.3 Lux
06:43 AM16,4 ºC100 %963 hPa0,00 l/m2 45º NE 0,1 km/h0,9 km/h2.2 Lux
06:38 AM16,4 ºC100 %963 hPa0,00 l/m2 0º N 0,0 km/h0,0 km/h2.2 Lux
06:33 AM16,4 ºC100 %963 hPa0,00 l/m2 0º N 0,0 km/h0,9 km/h2.2 Lux
06:28 AM16,3 ºC100 %963 hPa0,00 l/m2 337,5º NNO 0,0 km/h0,0 km/h2.3 Lux
06:23 AM16,2 ºC100 %963 hPa0,00 l/m2 0º N 0,0 km/h0,0 km/h2.4 Lux
06:18 AM16,2 ºC100 %963 hPa0,00 l/m2 337,5º NNO 0,0 km/h0,0 km/h2.2 Lux
06:13 AM16,3 ºC100 %963 hPa0,00 l/m2 45º NE 0,1 km/h1,2 km/h2.1 Lux
06:08 AM16,4 ºC100 %963 hPa0,00 l/m2 45º NE 0,0 km/h0,3 km/h2.3 Lux
06:03 AM16,4 ºC100 %963 hPa0,00 l/m2 67,5º ENE 0,0 km/h0,9 km/h2.1 Lux
05:58 AM16,6 ºC100 %963 hPa0,00 l/m2 0º N 0,0 km/h0,0 km/h2.3 Lux
05:53 AM16,6 ºC100 %963 hPa0,00 l/m2 0º N 0,0 km/h0,3 km/h2.2 Lux
05:48 AM16,6 ºC100 %963 hPa0,00 l/m2 0º N 0,1 km/h1,2 km/h2.2 Lux
05:43 AM16,5 ºC100 %963 hPa0,00 l/m2 157,5º SSE 0,0 km/h0,3 km/h2.3 Lux
05:38 AM16,5 ºC100 %963 hPa0,00 l/m2 45º NE 0,0 km/h0,3 km/h2.2 Lux
05:33 AM16,5 ºC100 %963 hPa0,00 l/m2 337,5º NNO 0,0 km/h0,0 km/h2.2 Lux
05:28 AM16,6 ºC100 %963 hPa0,00 l/m2 225º SO 0,0 km/h0,0 km/h2.2 Lux
05:23 AM16,6 ºC100 %963 hPa0,00 l/m2 315º NO 0,0 km/h0,3 km/h2.3 Lux
05:18 AM16,5 ºC100 %963 hPa0,00 l/m2 0º N 0,0 km/h0,6 km/h2.2 Lux
05:13 AM16,5 ºC100 %963 hPa0,00 l/m2 315º NO 0,1 km/h0,9 km/h2.3 Lux
05:08 AM16,6 ºC100 %963 hPa0,00 l/m2 337,5º NNO 0,0 km/h0,3 km/h2.2 Lux
05:03 AM16,6 ºC100 %963 hPa0,00 l/m2 0º N 0,0 km/h0,3 km/h2.2 Lux
04:58 AM16,5 ºC100 %963 hPa0,00 l/m2 225º SO 0,0 km/h0,6 km/h2.2 Lux
04:53 AM16,5 ºC100 %963 hPa0,00 l/m2 225º SO 0,0 km/h0,3 km/h2.3 Lux
04:48 AM16,6 ºC100 %963 hPa0,00 l/m2 0º N 0,1 km/h1,7 km/h2.3 Lux
04:43 AM16,6 ºC100 %963 hPa0,00 l/m2 45º NE 0,0 km/h0,0 km/h2.2 Lux
04:38 AM16,7 ºC100 %963 hPa0,00 l/m2 45º NE 0,0 km/h0,3 km/h2.1 Lux
04:33 AM16,8 ºC100 %963 hPa0,00 l/m2 0º N 0,0 km/h0,3 km/h2.3 Lux
04:28 AM16,9 ºC99 %963 hPa0,00 l/m2 45º NE 0,0 km/h0,3 km/h2.1 Lux
04:23 AM16,8 ºC99 %963 hPa0,00 l/m2 337,5º NNO 0,0 km/h0,3 km/h2.2 Lux
04:18 AM16,8 ºC99 %963 hPa0,00 l/m2 0º N 0,0 km/h0,0 km/h2.3 Lux
04:13 AM16,8 ºC99 %963 hPa0,00 l/m2 0º N 0,1 km/h0,9 km/h2.2 Lux
04:08 AM16,8 ºC100 %963 hPa0,00 l/m2 337,5º NNO 0,1 km/h1,2 km/h2.2 Lux
04:03 AM16,9 ºC99 %963 hPa0,00 l/m2 315º NO 0,0 km/h0,0 km/h2.2 Lux
03:58 AM16,9 ºC99 %963 hPa0,00 l/m2 225º SO 0,0 km/h0,3 km/h2.1 Lux
03:53 AM17,0 ºC99 %963 hPa0,00 l/m2 337,5º NNO 0,0 km/h0,3 km/h2.2 Lux
03:48 AM17,0 ºC99 %963 hPa0,00 l/m2 0º N 0,0 km/h0,3 km/h2.2 Lux
03:43 AM17,0 ºC99 %963 hPa0,00 l/m2 337,5º NNO 0,0 km/h0,3 km/h2.2 Lux
03:38 AM17,0 ºC100 %963 hPa0,00 l/m2 0º N 0,0 km/h0,3 km/h2.3 Lux
03:33 AM16,9 ºC100 %963 hPa0,00 l/m2 157,5º SSE 0,0 km/h0,3 km/h2.2 Lux
03:28 AM16,9 ºC100 %963 hPa0,00 l/m2 0º N 0,0 km/h0,3 km/h2.3 Lux
03:23 AM16,9 ºC99 %963 hPa0,00 l/m2 337,5º NNO 0,0 km/h0,3 km/h2.1 Lux
03:18 AM17,1 ºC99 %963 hPa0,00 l/m2 0º N 0,0 km/h0,3 km/h2.3 Lux
03:13 AM17,2 ºC99 %963 hPa0,00 l/m2 337,5º NNO 0,3 km/h2,9 km/h2.3 Lux
03:08 AM17,1 ºC100 %963 hPa0,00 l/m2 247,5º OSO 0,0 km/h0,0 km/h2.1 Lux
03:03 AM17,1 ºC100 %963 hPa0,00 l/m2 225º SO 0,0 km/h0,0 km/h2.1 Lux
02:58 AM17,1 ºC100 %963 hPa0,00 l/m2 0º N 0,0 km/h0,0 km/h2.3 Lux
02:53 AM17,1 ºC100 %963 hPa0,00 l/m2 45º NE 0,0 km/h0,0 km/h2.3 Lux
02:48 AM17,1 ºC100 %963 hPa0,00 l/m2 0º N 0,0 km/h0,0 km/h2.1 Lux
02:43 AM17,3 ºC99 %963 hPa0,00 l/m2 45º NE 0,0 km/h0,0 km/h2.3 Lux
02:38 AM17,4 ºC99 %963 hPa0,00 l/m2 0º N 0,0 km/h0,3 km/h2.2 Lux
02:33 AM17,1 ºC100 %963 hPa0,00 l/m2 67,5º ENE 0,0 km/h0,0 km/h2.3 Lux
02:28 AM17,1 ºC100 %963 hPa0,00 l/m2 0º N 0,0 km/h0,0 km/h2.2 Lux
02:23 AM17,2 ºC99 %963 hPa0,00 l/m2 0º N 0,0 km/h0,0 km/h2.3 Lux
02:18 AM17,6 ºC97 %963 hPa0,00 l/m2 0º N 0,0 km/h0,0 km/h2.2 Lux
02:13 AM17,6 ºC97 %963 hPa0,00 l/m2 0º N 0,0 km/h0,0 km/h2.3 Lux
02:08 AM17,6 ºC97 %963 hPa0,00 l/m2 0º N 0,0 km/h0,0 km/h2.3 Lux
02:03 AM17,7 ºC97 %963 hPa0,00 l/m2 337,5º NNO 0,0 km/h0,3 km/h2.3 Lux
01:58 AM17,7 ºC96 %963 hPa0,00 l/m2 337,5º NNO 0,0 km/h0,0 km/h2.2 Lux
01:53 AM17,7 ºC96 %963 hPa0,00 l/m2 67,5º ENE 0,0 km/h0,3 km/h2.3 Lux
01:48 AM17,6 ºC97 %963 hPa0,00 l/m2 0º N 0,0 km/h0,3 km/h2.1 Lux
01:43 AM17,6 ºC97 %963 hPa0,00 l/m2 67,5º ENE 0,0 km/h0,0 km/h2.3 Lux
01:38 AM17,7 ºC96 %963 hPa0,00 l/m2 0º N 0,0 km/h0,3 km/h2.3 Lux
01:33 AM17,7 ºC96 %963 hPa0,00 l/m2 45º NE 0,0 km/h0,0 km/h2.1 Lux
01:28 AM17,7 ºC96 %963 hPa0,00 l/m2 0º N 0,0 km/h0,3 km/h2.3 Lux
01:23 AM17,7 ºC96 %963 hPa0,00 l/m2 247,5º OSO 0,0 km/h0,0 km/h2.2 Lux
01:18 AM17,8 ºC96 %963 hPa0,00 l/m2 0º N 0,0 km/h0,3 km/h2.2 Lux
01:13 AM17,8 ºC95 %963 hPa0,00 l/m2 0º N 0,0 km/h0,0 km/h2.2 Lux
01:08 AM17,8 ºC96 %963 hPa0,00 l/m2 0º N 0,0 km/h0,0 km/h2.3 Lux
01:03 AM17,7 ºC96 %963 hPa0,00 l/m2 337,5º NNO 0,0 km/h0,0 km/h2.1 Lux
12:58 AM17,7 ºC96 %963 hPa0,00 l/m2 315º NO 0,0 km/h0,0 km/h2.3 Lux
12:53 AM17,7 ºC96 %963 hPa0,00 l/m2 337,5º NNO 0,0 km/h0,0 km/h2.3 Lux
12:48 AM17,7 ºC96 %963 hPa0,00 l/m2 0º N 0,0 km/h0,3 km/h2.3 Lux
12:43 AM17,7 ºC96 %963 hPa0,00 l/m2 247,5º OSO 0,0 km/h0,3 km/h2.4 Lux
12:38 AM17,8 ºC95 %963 hPa0,00 l/m2 0º N 0,0 km/h0,0 km/h2.4 Lux
12:33 AM17,9 ºC95 %963 hPa0,00 l/m2 45º NE 0,0 km/h0,3 km/h2.3 Lux
12:28 AM17,9 ºC95 %963 hPa0,00 l/m2 337,5º NNO 0,3 km/h2,3 km/h2.3 Lux
12:23 AM17,9 ºC95 %963 hPa0,00 l/m2 45º NE 0,1 km/h0,9 km/h2.2 Lux
12:18 AM18,0 ºC94 %963 hPa0,00 l/m2 45º NE 0,0 km/h0,9 km/h2.3 Lux
12:13 AM18,1 ºC94 %963 hPa0,00 l/m2 45º NE 0,1 km/h2,0 km/h2.2 Lux
12:08 AM18,1 ºC94 %963 hPa0,00 l/m2 45º NE 0,0 km/h0,3 km/h2.1 Lux
12:03 AM18,2 ºC94 %963 hPa0,00 l/m2 337,5º NNO 0,0 km/h0,0 km/h2.1 Lux
WeatherStation © 2018